sensor_id;sensor_type;location;lat;lon;timestamp;temperature;humidity
45785;DHT22;31489;51.404;5.474;2023-01-28T00:01:40;8.60;66.80
45785;DHT22;31489;51.404;5.474;2023-01-28T00:04:05;8.60;66.80
45785;DHT22;31489;51.404;5.474;2023-01-28T00:06:31;8.60;66.80
45785;DHT22;31489;51.404;5.474;2023-01-28T00:08:57;8.60;66.80
45785;DHT22;31489;51.404;5.474;2023-01-28T00:11:22;8.60;66.80
45785;DHT22;31489;51.404;5.474;2023-01-28T00:13:52;8.60;66.90
45785;DHT22;31489;51.404;5.474;2023-01-28T00:16:18;8.60;66.70
45785;DHT22;31489;51.404;5.474;2023-01-28T00:18:44;8.60;67.10
45785;DHT22;31489;51.404;5.474;2023-01-28T00:21:12;8.60;67.10
45785;DHT22;31489;51.404;5.474;2023-01-28T00:23:39;8.60;67.10
45785;DHT22;31489;51.404;5.474;2023-01-28T00:26:09;8.60;67.00
45785;DHT22;31489;51.404;5.474;2023-01-28T00:28:34;8.60;67.00
45785;DHT22;31489;51.404;5.474;2023-01-28T00:31:08;8.60;67.20
45785;DHT22;31489;51.404;5.474;2023-01-28T00:33:35;8.60;66.80
45785;DHT22;31489;51.404;5.474;2023-01-28T00:36:01;8.60;67.40
45785;DHT22;31489;51.404;5.474;2023-01-28T00:38:28;8.60;67.10
45785;DHT22;31489;51.404;5.474;2023-01-28T00:40:54;8.60;67.00
45785;DHT22;31489;51.404;5.474;2023-01-28T00:43:20;8.60;66.90
45785;DHT22;31489;51.404;5.474;2023-01-28T00:45:46;8.60;66.90
45785;DHT22;31489;51.404;5.474;2023-01-28T00:48:12;8.50;66.90
45785;DHT22;31489;51.404;5.474;2023-01-28T00:50:39;8.50;67.00
45785;DHT22;31489;51.404;5.474;2023-01-28T00:53:05;8.50;66.90
45785;DHT22;31489;51.404;5.474;2023-01-28T00:55:31;8.50;67.00
45785;DHT22;31489;51.404;5.474;2023-01-28T00:57:57;8.50;67.20
45785;DHT22;31489;51.404;5.474;2023-01-28T01:00:22;8.50;67.00
45785;DHT22;31489;51.404;5.474;2023-01-28T01:02:51;8.50;67.10
45785;DHT22;31489;51.404;5.474;2023-01-28T01:05:17;8.40;66.90
45785;DHT22;31489;51.404;5.474;2023-01-28T01:07:43;8.40;66.70
45785;DHT22;31489;51.404;5.474;2023-01-28T01:10:14;8.40;66.70
45785;DHT22;31489;51.404;5.474;2023-01-28T01:12:41;8.40;66.70
45785;DHT22;31489;51.404;5.474;2023-01-28T01:15:08;8.40;66.80
45785;DHT22;31489;51.404;5.474;2023-01-28T01:17:35;8.40;66.60
45785;DHT22;31489;51.404;5.474;2023-01-28T01:20:03;8.40;66.70
45785;DHT22;31489;51.404;5.474;2023-01-28T01:22:32;8.40;66.70
45785;DHT22;31489;51.404;5.474;2023-01-28T01:24:59;8.30;66.50
45785;DHT22;31489;51.404;5.474;2023-01-28T01:27:24;8.40;66.50
45785;DHT22;31489;51.404;5.474;2023-01-28T01:29:50;8.30;66.70
45785;DHT22;31489;51.404;5.474;2023-01-28T01:32:16;8.40;66.70
45785;DHT22;31489;51.404;5.474;2023-01-28T01:34:43;8.40;66.70
45785;DHT22;31489;51.404;5.474;2023-01-28T01:37:08;8.40;66.80
45785;DHT22;31489;51.404;5.474;2023-01-28T01:39:35;8.40;66.70
45785;DHT22;31489;51.404;5.474;2023-01-28T01:42:01;8.30;66.80
45785;DHT22;31489;51.404;5.474;2023-01-28T01:47:15;8.40;66.40
45785;DHT22;31489;51.404;5.474;2023-01-28T01:49:42;8.30;66.60
45785;DHT22;31489;51.404;5.474;2023-01-28T01:52:13;8.40;66.80
45785;DHT22;31489;51.404;5.474;2023-01-28T01:54:43;8.30;66.80
45785;DHT22;31489;51.404;5.474;2023-01-28T01:57:15;8.40;66.80
45785;DHT22;31489;51.404;5.474;2023-01-28T01:59:41;8.40;66.80
45785;DHT22;31489;51.404;5.474;2023-01-28T02:02:09;8.40;66.90
45785;DHT22;31489;51.404;5.474;2023-01-28T02:04:39;8.30;66.90
45785;DHT22;31489;51.404;5.474;2023-01-28T02:07:05;8.30;66.80
45785;DHT22;31489;51.404;5.474;2023-01-28T02:09:34;8.40;67.00
45785;DHT22;31489;51.404;5.474;2023-01-28T02:12:09;8.30;66.90
45785;DHT22;31489;51.404;5.474;2023-01-28T02:14:43;8.30;66.70
45785;DHT22;31489;51.404;5.474;2023-01-28T02:17:10;8.30;66.70
45785;DHT22;31489;51.404;5.474;2023-01-28T02:20:00;8.30;66.80
45785;DHT22;31489;51.404;5.474;2023-01-28T02:28:26;8.30;66.20
45785;DHT22;31489;51.404;5.474;2023-01-28T02:31:29;8.30;66.10
45785;DHT22;31489;51.404;5.474;2023-01-28T02:36:35;8.30;66.70
45785;DHT22;31489;51.404;5.474;2023-01-28T02:39:15;8.30;66.00
45785;DHT22;31489;51.404;5.474;2023-01-28T02:41:49;8.20;66.30
45785;DHT22;31489;51.404;5.474;2023-01-28T02:44:16;8.20;66.30
45785;DHT22;31489;51.404;5.474;2023-01-28T02:46:42;8.20;66.40
45785;DHT22;31489;51.404;5.474;2023-01-28T02:49:30;8.30;66.40
45785;DHT22;31489;51.404;5.474;2023-01-28T02:55:27;8.20;65.90
45785;DHT22;31489;51.404;5.474;2023-01-28T02:58:24;8.20;65.80
45785;DHT22;31489;51.404;5.474;2023-01-28T03:03:28;8.20;66.00
45785;DHT22;31489;51.404;5.474;2023-01-28T03:06:02;8.20;66.10
45785;DHT22;31489;51.404;5.474;2023-01-28T03:08:44;8.20;66.30
45785;DHT22;31489;51.404;5.474;2023-01-28T03:11:32;8.20;66.10
45785;DHT22;31489;51.404;5.474;2023-01-28T03:14:18;8.10;66.00
45785;DHT22;31489;51.404;5.474;2023-01-28T03:17:04;8.20;65.80
45785;DHT22;31489;51.404;5.474;2023-01-28T03:19:52;8.20;65.80
45785;DHT22;31489;51.404;5.474;2023-01-28T03:22:39;8.20;66.00
45785;DHT22;31489;51.404;5.474;2023-01-28T03:25:26;8.20;65.80
45785;DHT22;31489;51.404;5.474;2023-01-28T03:28:15;8.10;65.80
45785;DHT22;31489;51.404;5.474;2023-01-28T03:31:14;8.10;65.80
45785;DHT22;31489;51.404;5.474;2023-01-28T03:33:59;8.10;65.20
45785;DHT22;31489;51.404;5.474;2023-01-28T03:36:46;8.10;65.80
45785;DHT22;31489;51.404;5.474;2023-01-28T03:39:16;8.10;65.90
45785;DHT22;31489;51.404;5.474;2023-01-28T03:41:54;8.10;65.70
45785;DHT22;31489;51.404;5.474;2023-01-28T03:44:19;8.10;65.80
45785;DHT22;31489;51.404;5.474;2023-01-28T03:47:03;8.10;65.80
45785;DHT22;31489;51.404;5.474;2023-01-28T03:49:31;8.00;65.50
45785;DHT22;31489;51.404;5.474;2023-01-28T03:51:57;8.00;65.60
45785;DHT22;31489;51.404;5.474;2023-01-28T03:54:22;8.00;65.40
45785;DHT22;31489;51.404;5.474;2023-01-28T03:56:48;8.00;65.70
45785;DHT22;31489;51.404;5.474;2023-01-28T03:59:13;8.00;65.50
45785;DHT22;31489;51.404;5.474;2023-01-28T04:01:39;8.00;65.50
45785;DHT22;31489;51.404;5.474;2023-01-28T04:04:05;8.00;65.40
45785;DHT22;31489;51.404;5.474;2023-01-28T04:06:30;8.00;65.40
45785;DHT22;31489;51.404;5.474;2023-01-28T04:08:56;8.00;65.30
45785;DHT22;31489;51.404;5.474;2023-01-28T04:11:24;8.00;65.30
45785;DHT22;31489;51.404;5.474;2023-01-28T04:13:51;8.00;65.20
45785;DHT22;31489;51.404;5.474;2023-01-28T04:16:18;8.00;65.30
45785;DHT22;31489;51.404;5.474;2023-01-28T04:18:44;8.00;65.10
45785;DHT22;31489;51.404;5.474;2023-01-28T04:21:11;8.00;65.00
45785;DHT22;31489;51.404;5.474;2023-01-28T04:23:37;8.00;64.90
45785;DHT22;31489;51.404;5.474;2023-01-28T04:26:02;8.00;65.00
45785;DHT22;31489;51.404;5.474;2023-01-28T04:28:28;8.00;65.20
45785;DHT22;31489;51.404;5.474;2023-01-28T04:30:54;8.00;65.10
45785;DHT22;31489;51.404;5.474;2023-01-28T04:33:20;8.00;64.90
45785;DHT22;31489;51.404;5.474;2023-01-28T04:35:46;8.00;65.00
45785;DHT22;31489;51.404;5.474;2023-01-28T04:38:11;8.00;65.10
45785;DHT22;31489;51.404;5.474;2023-01-28T04:40:37;8.00;64.90
45785;DHT22;31489;51.404;5.474;2023-01-28T04:43:02;8.00;64.70
45785;DHT22;31489;51.404;5.474;2023-01-28T04:45:28;8.00;64.50
45785;DHT22;31489;51.404;5.474;2023-01-28T04:47:55;8.00;64.40
45785;DHT22;31489;51.404;5.474;2023-01-28T04:50:21;8.00;64.30
45785;DHT22;31489;51.404;5.474;2023-01-28T04:52:46;8.00;64.20
45785;DHT22;31489;51.404;5.474;2023-01-28T04:55:12;8.00;64.00
45785;DHT22;31489;51.404;5.474;2023-01-28T04:57:37;7.90;64.10
45785;DHT22;31489;51.404;5.474;2023-01-28T05:00:03;8.00;64.00
45785;DHT22;31489;51.404;5.474;2023-01-28T05:02:30;8.00;64.20
45785;DHT22;31489;51.404;5.474;2023-01-28T05:04:55;8.00;63.90
45785;DHT22;31489;51.404;5.474;2023-01-28T05:07:21;8.00;64.30
45785;DHT22;31489;51.404;5.474;2023-01-28T05:09:47;8.00;64.90
45785;DHT22;31489;51.404;5.474;2023-01-28T05:12:12;8.00;64.20
45785;DHT22;31489;51.404;5.474;2023-01-28T05:14:38;8.00;64.00
45785;DHT22;31489;51.404;5.474;2023-01-28T05:17:03;8.00;64.10
45785;DHT22;31489;51.404;5.474;2023-01-28T05:19:29;8.00;64.10
45785;DHT22;31489;51.404;5.474;2023-01-28T05:21:55;8.00;63.90
45785;DHT22;31489;51.404;5.474;2023-01-28T05:24:20;8.00;64.20
45785;DHT22;31489;51.404;5.474;2023-01-28T05:26:46;8.00;64.10
45785;DHT22;31489;51.404;5.474;2023-01-28T05:29:12;8.00;64.20
45785;DHT22;31489;51.404;5.474;2023-01-28T05:31:37;8.00;64.30
45785;DHT22;31489;51.404;5.474;2023-01-28T05:34:03;7.90;64.30
45785;DHT22;31489;51.404;5.474;2023-01-28T05:36:28;8.00;64.30
45785;DHT22;31489;51.404;5.474;2023-01-28T05:38:54;8.00;64.20
45785;DHT22;31489;51.404;5.474;2023-01-28T05:41:20;7.90;64.20
45785;DHT22;31489;51.404;5.474;2023-01-28T05:43:45;7.90;64.30
45785;DHT22;31489;51.404;5.474;2023-01-28T05:46:11;7.90;64.30
45785;DHT22;31489;51.404;5.474;2023-01-28T05:48:36;7.90;64.40
45785;DHT22;31489;51.404;5.474;2023-01-28T05:51:02;7.90;64.30
45785;DHT22;31489;51.404;5.474;2023-01-28T05:53:29;7.90;64.40
45785;DHT22;31489;51.404;5.474;2023-01-28T05:55:55;7.90;64.50
45785;DHT22;31489;51.404;5.474;2023-01-28T05:58:21;7.90;64.80
45785;DHT22;31489;51.404;5.474;2023-01-28T06:00:46;7.90;65.00
45785;DHT22;31489;51.404;5.474;2023-01-28T06:03:12;7.90;65.20
45785;DHT22;31489;51.404;5.474;2023-01-28T06:05:38;7.90;65.20
45785;DHT22;31489;51.404;5.474;2023-01-28T06:08:04;7.90;65.30
45785;DHT22;31489;51.404;5.474;2023-01-28T06:10:30;7.90;65.20
45785;DHT22;31489;51.404;5.474;2023-01-28T06:12:55;7.90;65.20
45785;DHT22;31489;51.404;5.474;2023-01-28T06:15:21;7.90;65.30
45785;DHT22;31489;51.404;5.474;2023-01-28T06:17:47;7.90;65.20
45785;DHT22;31489;51.404;5.474;2023-01-28T06:20:13;7.80;65.10
45785;DHT22;31489;51.404;5.474;2023-01-28T06:22:38;7.80;65.80
45785;DHT22;31489;51.404;5.474;2023-01-28T06:25:04;7.80;65.40
45785;DHT22;31489;51.404;5.474;2023-01-28T06:27:30;7.80;65.40
45785;DHT22;31489;51.404;5.474;2023-01-28T06:29:55;7.80;65.40
45785;DHT22;31489;51.404;5.474;2023-01-28T06:32:21;7.80;65.10
45785;DHT22;31489;51.404;5.474;2023-01-28T06:34:47;7.80;64.90
45785;DHT22;31489;51.404;5.474;2023-01-28T06:37:13;7.80;64.70
45785;DHT22;31489;51.404;5.474;2023-01-28T06:39:38;7.80;64.60
45785;DHT22;31489;51.404;5.474;2023-01-28T06:42:04;7.80;64.30
45785;DHT22;31489;51.404;5.474;2023-01-28T06:44:30;7.80;64.10
45785;DHT22;31489;51.404;5.474;2023-01-28T06:46:55;7.80;64.20
45785;DHT22;31489;51.404;5.474;2023-01-28T06:49:21;7.70;63.90
45785;DHT22;31489;51.404;5.474;2023-01-28T06:51:47;7.70;63.80
45785;DHT22;31489;51.404;5.474;2023-01-28T06:54:13;7.70;64.00
45785;DHT22;31489;51.404;5.474;2023-01-28T06:56:39;7.70;64.20
45785;DHT22;31489;51.404;5.474;2023-01-28T06:59:04;7.70;64.00
45785;DHT22;31489;51.404;5.474;2023-01-28T07:01:30;7.70;64.00
45785;DHT22;31489;51.404;5.474;2023-01-28T07:03:55;7.70;63.90
45785;DHT22;31489;51.404;5.474;2023-01-28T07:06:21;7.70;63.80
45785;DHT22;31489;51.404;5.474;2023-01-28T07:08:47;7.70;63.40
45785;DHT22;31489;51.404;5.474;2023-01-28T07:11:14;7.70;63.60
45785;DHT22;31489;51.404;5.474;2023-01-28T07:13:39;7.70;63.70
45785;DHT22;31489;51.404;5.474;2023-01-28T07:16:06;7.70;64.20
45785;DHT22;31489;51.404;5.474;2023-01-28T07:18:31;7.70;63.50
45785;DHT22;31489;51.404;5.474;2023-01-28T07:20:57;7.70;63.70
45785;DHT22;31489;51.404;5.474;2023-01-28T07:23:23;7.70;63.70
45785;DHT22;31489;51.404;5.474;2023-01-28T07:25:48;7.70;63.70
45785;DHT22;31489;51.404;5.474;2023-01-28T07:28:14;7.70;63.90
45785;DHT22;31489;51.404;5.474;2023-01-28T07:30:49;7.70;63.70
45785;DHT22;31489;51.404;5.474;2023-01-28T07:33:15;7.70;63.70
45785;DHT22;31489;51.404;5.474;2023-01-28T07:35:41;7.70;63.40
45785;DHT22;31489;51.404;5.474;2023-01-28T07:38:07;7.60;63.30
45785;DHT22;31489;51.404;5.474;2023-01-28T07:40:32;7.70;63.00
45785;DHT22;31489;51.404;5.474;2023-01-28T07:42:58;7.60;63.20
45785;DHT22;31489;51.404;5.474;2023-01-28T07:45:24;7.70;63.30
45785;DHT22;31489;51.404;5.474;2023-01-28T07:47:54;7.60;63.30
45785;DHT22;31489;51.404;5.474;2023-01-28T07:50:21;7.60;62.90
45785;DHT22;31489;51.404;5.474;2023-01-28T07:52:46;7.60;63.10
45785;DHT22;31489;51.404;5.474;2023-01-28T07:55:12;7.60;62.80
45785;DHT22;31489;51.404;5.474;2023-01-28T07:57:51;7.60;62.80
45785;DHT22;31489;51.404;5.474;2023-01-28T08:00:17;7.60;62.80
45785;DHT22;31489;51.404;5.474;2023-01-28T08:02:43;7.60;63.10
45785;DHT22;31489;51.404;5.474;2023-01-28T08:05:19;7.60;63.00
45785;DHT22;31489;51.404;5.474;2023-01-28T08:07:46;7.60;62.60
45785;DHT22;31489;51.404;5.474;2023-01-28T08:10:13;7.60;62.80
45785;DHT22;31489;51.404;5.474;2023-01-28T08:12:56;7.60;63.00
45785;DHT22;31489;51.404;5.474;2023-01-28T08:15:25;7.60;62.70
45785;DHT22;31489;51.404;5.474;2023-01-28T08:17:53;7.60;63.00
45785;DHT22;31489;51.404;5.474;2023-01-28T08:20:20;7.60;62.70
45785;DHT22;31489;51.404;5.474;2023-01-28T08:22:45;7.60;62.70
45785;DHT22;31489;51.404;5.474;2023-01-28T08:25:11;7.60;62.60
45785;DHT22;31489;51.404;5.474;2023-01-28T08:27:37;7.60;62.60
45785;DHT22;31489;51.404;5.474;2023-01-28T08:30:03;7.60;62.70
45785;DHT22;31489;51.404;5.474;2023-01-28T08:32:29;7.60;62.80
45785;DHT22;31489;51.404;5.474;2023-01-28T08:34:55;7.60;62.90
45785;DHT22;31489;51.404;5.474;2023-01-28T08:37:21;7.60;62.70
45785;DHT22;31489;51.404;5.474;2023-01-28T08:39:46;7.60;62.70
45785;DHT22;31489;51.404;5.474;2023-01-28T08:42:12;7.60;62.60
45785;DHT22;31489;51.404;5.474;2023-01-28T08:44:37;7.60;62.60
45785;DHT22;31489;51.404;5.474;2023-01-28T08:47:03;7.60;62.60
45785;DHT22;31489;51.404;5.474;2023-01-28T08:49:29;7.60;62.60
45785;DHT22;31489;51.404;5.474;2023-01-28T08:51:54;7.60;62.60
45785;DHT22;31489;51.404;5.474;2023-01-28T08:54:20;7.60;62.60
45785;DHT22;31489;51.404;5.474;2023-01-28T08:56:46;7.60;62.40
45785;DHT22;31489;51.404;5.474;2023-01-28T08:59:13;7.60;62.60
45785;DHT22;31489;51.404;5.474;2023-01-28T09:01:39;7.60;62.50
45785;DHT22;31489;51.404;5.474;2023-01-28T09:04:04;7.60;62.30
45785;DHT22;31489;51.404;5.474;2023-01-28T09:06:30;7.60;62.60
45785;DHT22;31489;51.404;5.474;2023-01-28T09:08:57;7.60;62.60
45785;DHT22;31489;51.404;5.474;2023-01-28T09:11:23;7.60;62.50
45785;DHT22;31489;51.404;5.474;2023-01-28T09:13:49;7.60;62.40
45785;DHT22;31489;51.404;5.474;2023-01-28T09:16:14;7.70;62.40
45785;DHT22;31489;51.404;5.474;2023-01-28T09:18:40;7.70;62.20
45785;DHT22;31489;51.404;5.474;2023-01-28T09:21:07;7.70;62.30
45785;DHT22;31489;51.404;5.474;2023-01-28T09:23:37;7.70;62.30
45785;DHT22;31489;51.404;5.474;2023-01-28T09:26:03;7.70;62.30
45785;DHT22;31489;51.404;5.474;2023-01-28T09:28:30;7.80;62.70
45785;DHT22;31489;51.404;5.474;2023-01-28T09:31:08;7.80;62.30
45785;DHT22;31489;51.404;5.474;2023-01-28T09:33:36;7.80;61.80
45785;DHT22;31489;51.404;5.474;2023-01-28T09:36:03;7.80;62.50
45785;DHT22;31489;51.404;5.474;2023-01-28T09:38:30;7.90;62.60
45785;DHT22;31489;51.404;5.474;2023-01-28T09:40:56;7.90;62.70
45785;DHT22;31489;51.404;5.474;2023-01-28T09:46:16;7.90;62.60
45785;DHT22;31489;51.404;5.474;2023-01-28T09:48:49;8.00;62.60
45785;DHT22;31489;51.404;5.474;2023-01-28T09:51:40;8.00;62.10
45785;DHT22;31489;51.404;5.474;2023-01-28T09:56:42;8.00;61.20
45785;DHT22;31489;51.404;5.474;2023-01-28T09:59:22;8.10;61.80
45785;DHT22;31489;51.404;5.474;2023-01-28T10:04:46;8.10;61.90
45785;DHT22;31489;51.404;5.474;2023-01-28T10:10:11;8.10;62.10
45785;DHT22;31489;51.404;5.474;2023-01-28T10:17:53;8.10;61.90
45785;DHT22;31489;51.404;5.474;2023-01-28T10:20:23;8.10;62.20
45785;DHT22;31489;51.404;5.474;2023-01-28T10:25:29;8.10;62.00
45785;DHT22;31489;51.404;5.474;2023-01-28T10:27:55;8.10;62.80
45785;DHT22;31489;51.404;5.474;2023-01-28T10:30:27;8.10;62.50
45785;DHT22;31489;51.404;5.474;2023-01-28T10:33:19;8.10;62.10
45785;DHT22;31489;51.404;5.474;2023-01-28T10:35:47;8.10;61.90
45785;DHT22;31489;51.404;5.474;2023-01-28T10:38:23;8.10;62.30
45785;DHT22;31489;51.404;5.474;2023-01-28T10:40:50;8.10;61.60
45785;DHT22;31489;51.404;5.474;2023-01-28T10:43:19;8.00;61.70
45785;DHT22;31489;51.404;5.474;2023-01-28T10:46:11;8.00;62.00
45785;DHT22;31489;51.404;5.474;2023-01-28T10:48:41;8.00;61.70
45785;DHT22;31489;51.404;5.474;2023-01-28T10:51:08;8.00;62.30
45785;DHT22;31489;51.404;5.474;2023-01-28T10:53:39;8.00;62.50
45785;DHT22;31489;51.404;5.474;2023-01-28T10:56:12;8.00;62.30
45785;DHT22;31489;51.404;5.474;2023-01-28T11:01:59;8.00;61.70
45785;DHT22;31489;51.404;5.474;2023-01-28T11:04:33;8.10;62.60
45785;DHT22;31489;51.404;5.474;2023-01-28T11:07:18;8.10;62.30
45785;DHT22;31489;51.404;5.474;2023-01-28T11:09:46;8.10;62.10
45785;DHT22;31489;51.404;5.474;2023-01-28T11:12:27;8.00;62.50
45785;DHT22;31489;51.404;5.474;2023-01-28T11:15:04;8.00;62.00
45785;DHT22;31489;51.404;5.474;2023-01-28T11:17:34;8.00;61.70
45785;DHT22;31489;51.404;5.474;2023-01-28T11:20:18;8.00;62.00
45785;DHT22;31489;51.404;5.474;2023-01-28T11:22:45;8.00;61.70
45785;DHT22;31489;51.404;5.474;2023-01-28T11:25:33;8.00;62.60
45785;DHT22;31489;51.404;5.474;2023-01-28T11:28:07;8.00;62.20
45785;DHT22;31489;51.404;5.474;2023-01-28T11:30:39;8.00;62.20
45785;DHT22;31489;51.404;5.474;2023-01-28T11:33:21;8.00;62.40
45785;DHT22;31489;51.404;5.474;2023-01-28T11:39:20;7.90;61.80
45785;DHT22;31489;51.404;5.474;2023-01-28T11:41:46;8.00;61.90
45785;DHT22;31489;51.404;5.474;2023-01-28T11:44:24;8.00;62.80
45785;DHT22;31489;51.404;5.474;2023-01-28T12:00:49;8.00;61.80
45785;DHT22;31489;51.404;5.474;2023-01-28T12:03:33;8.10;62.50
45785;DHT22;31489;51.404;5.474;2023-01-28T12:06:25;8.10;62.70
45785;DHT22;31489;51.404;5.474;2023-01-28T12:25:51;8.40;63.30
45785;DHT22;31489;51.404;5.474;2023-01-28T12:42:37;10.00;59.70
45785;DHT22;31489;51.404;5.474;2023-01-28T12:45:18;10.00;59.40
45785;DHT22;31489;51.404;5.474;2023-01-28T12:47:52;9.90;58.80
45785;DHT22;31489;51.404;5.474;2023-01-28T12:50:32;9.90;59.00
45785;DHT22;31489;51.404;5.474;2023-01-28T12:53:17;9.90;58.90
45785;DHT22;31489;51.404;5.474;2023-01-28T12:56:21;9.90;60.30
45785;DHT22;31489;51.404;5.474;2023-01-28T12:58:55;10.00;59.90
45785;DHT22;31489;51.404;5.474;2023-01-28T13:01:34;10.10;59.10
45785;DHT22;31489;51.404;5.474;2023-01-28T13:06:57;10.10;59.10
45785;DHT22;31489;51.404;5.474;2023-01-28T13:09:24;10.10;59.00
45785;DHT22;31489;51.404;5.474;2023-01-28T13:11:53;10.00;58.80
45785;DHT22;31489;51.404;5.474;2023-01-28T13:14:30;10.00;58.70
45785;DHT22;31489;51.404;5.474;2023-01-28T13:17:11;9.90;58.50
45785;DHT22;31489;51.404;5.474;2023-01-28T13:19:39;9.90;58.40
45785;DHT22;31489;51.404;5.474;2023-01-28T13:22:24;9.90;59.20
45785;DHT22;31489;51.404;5.474;2023-01-28T13:24:50;9.90;59.30
45785;DHT22;31489;51.404;5.474;2023-01-28T13:27:23;10.00;59.90
45785;DHT22;31489;51.404;5.474;2023-01-28T13:30:00;10.20;58.50
45785;DHT22;31489;51.404;5.474;2023-01-28T13:32:35;10.30;58.10
45785;DHT22;31489;51.404;5.474;2023-01-28T13:35:06;10.40;58.50
45785;DHT22;31489;51.404;5.474;2023-01-28T13:37:42;10.70;59.00
45785;DHT22;31489;51.404;5.474;2023-01-28T13:42:37;11.00;57.40
45785;DHT22;31489;51.404;5.474;2023-01-28T13:50:51;10.90;56.40
45785;DHT22;31489;51.404;5.474;2023-01-28T13:53:43;10.70;56.60
45785;DHT22;31489;51.404;5.474;2023-01-28T13:56:21;10.60;56.20
45785;DHT22;31489;51.404;5.474;2023-01-28T14:17:53;9.70;55.70
45785;DHT22;31489;51.404;5.474;2023-01-28T14:20:21;9.60;56.90
45785;DHT22;31489;51.404;5.474;2023-01-28T14:22:49;9.50;57.20
45785;DHT22;31489;51.404;5.474;2023-01-28T14:25:28;9.40;57.10
45785;DHT22;31489;51.404;5.474;2023-01-28T14:27:59;9.30;56.60
45785;DHT22;31489;51.404;5.474;2023-01-28T14:30:47;9.30;57.40
45785;DHT22;31489;51.404;5.474;2023-01-28T14:33:13;9.20;57.60
45785;DHT22;31489;51.404;5.474;2023-01-28T14:35:45;9.30;58.40
45785;DHT22;31489;51.404;5.474;2023-01-28T14:38:20;9.30;58.10
45785;DHT22;31489;51.404;5.474;2023-01-28T14:40:54;9.40;58.00
45785;DHT22;31489;51.404;5.474;2023-01-28T14:43:24;9.60;57.20
45785;DHT22;31489;51.404;5.474;2023-01-28T14:51:52;9.70;56.90
45785;DHT22;31489;51.404;5.474;2023-01-28T14:54:40;9.80;57.30
45785;DHT22;31489;51.404;5.474;2023-01-28T14:59:47;9.80;55.80
45785;DHT22;31489;51.404;5.474;2023-01-28T15:02:18;9.80;56.70
45785;DHT22;31489;51.404;5.474;2023-01-28T15:04:44;9.70;57.00
45785;DHT22;31489;51.404;5.474;2023-01-28T15:07:25;9.70;57.20
45785;DHT22;31489;51.404;5.474;2023-01-28T15:10:04;9.70;56.10
45785;DHT22;31489;51.404;5.474;2023-01-28T15:12:37;9.70;56.00
45785;DHT22;31489;51.404;5.474;2023-01-28T15:15:36;9.60;55.90
45785;DHT22;31489;51.404;5.474;2023-01-28T15:18:19;9.60;55.60
45785;DHT22;31489;51.404;5.474;2023-01-28T15:20:51;9.60;56.00
45785;DHT22;31489;51.404;5.474;2023-01-28T15:23:22;9.60;56.30
45785;DHT22;31489;51.404;5.474;2023-01-28T15:25:49;9.40;55.90
45785;DHT22;31489;51.404;5.474;2023-01-28T15:28:33;9.40;56.30
45785;DHT22;31489;51.404;5.474;2023-01-28T15:30:59;9.30;55.40
45785;DHT22;31489;51.404;5.474;2023-01-28T15:33:28;9.30;56.20
45785;DHT22;31489;51.404;5.474;2023-01-28T15:35:56;9.20;56.30
45785;DHT22;31489;51.404;5.474;2023-01-28T15:38:24;9.20;56.20
45785;DHT22;31489;51.404;5.474;2023-01-28T15:41:01;9.10;56.40
45785;DHT22;31489;51.404;5.474;2023-01-28T15:43:34;9.10;55.80
45785;DHT22;31489;51.404;5.474;2023-01-28T15:46:00;9.00;56.30
45785;DHT22;31489;51.404;5.474;2023-01-28T15:48:29;8.90;56.80
45785;DHT22;31489;51.404;5.474;2023-01-28T15:51:06;8.90;56.50
45785;DHT22;31489;51.404;5.474;2023-01-28T15:53:40;8.90;56.20
45785;DHT22;31489;51.404;5.474;2023-01-28T15:56:09;8.80;56.50
45785;DHT22;31489;51.404;5.474;2023-01-28T15:58:36;8.80;57.10
45785;DHT22;31489;51.404;5.474;2023-01-28T16:03:35;8.80;57.20
45785;DHT22;31489;51.404;5.474;2023-01-28T16:06:27;8.70;57.10
45785;DHT22;31489;51.404;5.474;2023-01-28T16:08:59;8.70;56.60
45785;DHT22;31489;51.404;5.474;2023-01-28T16:11:37;8.60;57.10
45785;DHT22;31489;51.404;5.474;2023-01-28T16:14:20;8.60;57.20
45785;DHT22;31489;51.404;5.474;2023-01-28T16:16:47;8.60;57.70
45785;DHT22;31489;51.404;5.474;2023-01-28T16:19:25;8.60;57.90
45785;DHT22;31489;51.404;5.474;2023-01-28T16:21:54;8.50;57.50
45785;DHT22;31489;51.404;5.474;2023-01-28T16:24:28;8.40;57.50
45785;DHT22;31489;51.404;5.474;2023-01-28T16:27:00;8.40;57.10
45785;DHT22;31489;51.404;5.474;2023-01-28T16:29:28;8.30;57.20
45785;DHT22;31489;51.404;5.474;2023-01-28T16:31:54;8.30;57.70
45785;DHT22;31489;51.404;5.474;2023-01-28T16:34:21;8.20;58.00
45785;DHT22;31489;51.404;5.474;2023-01-28T16:36:49;8.20;58.20
45785;DHT22;31489;51.404;5.474;2023-01-28T16:39:14;8.10;58.20
45785;DHT22;31489;51.404;5.474;2023-01-28T16:41:43;8.00;58.20
45785;DHT22;31489;51.404;5.474;2023-01-28T16:44:12;8.00;58.50
45785;DHT22;31489;51.404;5.474;2023-01-28T16:46:38;7.90;58.60
45785;DHT22;31489;51.404;5.474;2023-01-28T16:49:04;7.90;58.80
45785;DHT22;31489;51.404;5.474;2023-01-28T16:51:30;7.90;59.00
45785;DHT22;31489;51.404;5.474;2023-01-28T16:53:56;7.80;59.00
45785;DHT22;31489;51.404;5.474;2023-01-28T16:56:25;7.80;59.20
45785;DHT22;31489;51.404;5.474;2023-01-28T16:58:52;7.70;59.10
45785;DHT22;31489;51.404;5.474;2023-01-28T17:01:18;7.60;59.20
45785;DHT22;31489;51.404;5.474;2023-01-28T17:03:44;7.60;59.10
45785;DHT22;31489;51.404;5.474;2023-01-28T17:06:16;7.50;59.20
45785;DHT22;31489;51.404;5.474;2023-01-28T17:08:42;7.50;59.30
45785;DHT22;31489;51.404;5.474;2023-01-28T17:11:07;7.40;59.50
45785;DHT22;31489;51.404;5.474;2023-01-28T17:13:33;7.40;59.60
45785;DHT22;31489;51.404;5.474;2023-01-28T17:16:03;7.30;59.60
45785;DHT22;31489;51.404;5.474;2023-01-28T17:18:29;7.20;59.60
45785;DHT22;31489;51.404;5.474;2023-01-28T17:21:04;7.20;59.70
45785;DHT22;31489;51.404;5.474;2023-01-28T17:23:31;7.10;59.70
45785;DHT22;31489;51.404;5.474;2023-01-28T17:26:05;7.00;59.80
45785;DHT22;31489;51.404;5.474;2023-01-28T17:28:31;7.00;59.80
45785;DHT22;31489;51.404;5.474;2023-01-28T17:30:57;7.00;60.20
45785;DHT22;31489;51.404;5.474;2023-01-28T17:33:22;6.90;60.30
45785;DHT22;31489;51.404;5.474;2023-01-28T17:35:48;6.80;60.40
45785;DHT22;31489;51.404;5.474;2023-01-28T17:38:14;6.70;60.40
45785;DHT22;31489;51.404;5.474;2023-01-28T17:40:40;6.70;60.50
45785;DHT22;31489;51.404;5.474;2023-01-28T17:43:06;6.70;60.50
45785;DHT22;31489;51.404;5.474;2023-01-28T17:45:32;6.60;60.60
45785;DHT22;31489;51.404;5.474;2023-01-28T17:47:57;6.60;60.70
45785;DHT22;31489;51.404;5.474;2023-01-28T17:50:23;6.60;61.30
45785;DHT22;31489;51.404;5.474;2023-01-28T17:52:53;6.50;60.80
45785;DHT22;31489;51.404;5.474;2023-01-28T17:55:19;6.50;60.80
45785;DHT22;31489;51.404;5.474;2023-01-28T17:57:45;6.40;61.00
45785;DHT22;31489;51.404;5.474;2023-01-28T18:00:11;6.40;61.00
45785;DHT22;31489;51.404;5.474;2023-01-28T18:02:36;6.30;61.00
45785;DHT22;31489;51.404;5.474;2023-01-28T18:05:02;6.30;61.20
45785;DHT22;31489;51.404;5.474;2023-01-28T18:07:28;6.30;61.40
45785;DHT22;31489;51.404;5.474;2023-01-28T18:09:53;6.30;61.40
45785;DHT22;31489;51.404;5.474;2023-01-28T18:12:19;6.20;61.50